Map

Track Data

SID SEASON NUMBER BASIN SUBBASIN NAME ISO_TIME NATURE LAT LON WMO_WIND WMO_PRES WMO_AGENCY TRACK_TYPE DIST2LAND LANDFALL IFLAG USA_AGENCY USA_ATCF_ID USA_LAT USA_LON USA_RECORD USA_STATUS USA_WIND USA_PRES USA_SSHS USA_R34_NE USA_R34_SE USA_R34_SW USA_R34_NW USA_R50_NE USA_R50_SE USA_R50_SW USA_R50_NW USA_R64_NE USA_R64_SE USA_R64_SW USA_R64_NW USA_POCI USA_ROCI USA_RMW USA_EYE TOKYO_LAT TOKYO_LON TOKYO_GRADE TOKYO_WIND TOKYO_PRES TOKYO_R50_DIR TOKYO_R50_LONG TOKYO_R50_SHORT TOKYO_R30_DIR TOKYO_R30_LONG TOKYO_R30_SHORT TOKYO_LAND CMA_LAT CMA_LON CMA_CAT CMA_WIND CMA_PRES HKO_LAT HKO_LON HKO_CAT HKO_WIND HKO_PRES NEWDELHI_LAT NEWDELHI_LON NEWDELHI_GRADE NEWDELHI_WIND NEWDELHI_PRES NEWDELHI_CI NEWDELHI_DP NEWDELHI_POCI REUNION_LAT REUNION_LON REUNION_TYPE REUNION_WIND REUNION_PRES REUNION_TNUM REUNION_CI REUNION_RMW REUNION_R34_NE REUNION_R34_SE REUNION_R34_SW REUNION_R34_NW REUNION_R50_NE REUNION_R50_SE REUNION_R50_SW REUNION_R50_NW REUNION_R64_NE REUNION_R64_SE REUNION_R64_SW REUNION_R64_NW BOM_LAT BOM_LON BOM_TYPE BOM_WIND BOM_PRES BOM_TNUM BOM_CI BOM_RMW BOM_R34_NE BOM_R34_SE BOM_R34_SW BOM_R34_NW BOM_R50_NE BOM_R50_SE BOM_R50_SW BOM_R50_NW BOM_R64_NE BOM_R64_SE BOM_R64_SW BOM_R64_NW BOM_ROCI BOM_POCI BOM_EYE BOM_POS_METHOD BOM_PRES_METHOD NADI_LAT NADI_LON NADI_CAT NADI_WIND NADI_PRES WELLINGTON_LAT WELLINGTON_LON WELLINGTON_WIND WELLINGTON_PRES DS824_LAT DS824_LON DS824_STAGE DS824_WIND DS824_PRES TD9636_LAT TD9636_LON TD9636_STAGE TD9636_WIND TD9636_PRES TD9635_LAT TD9635_LON TD9635_WIND TD9635_PRES TD9635_ROCI NEUMANN_LAT NEUMANN_LON NEUMANN_CLASS NEUMANN_WIND NEUMANN_PRES MLC_LAT MLC_LON MLC_CLASS MLC_WIND MLC_PRES USA_GUST BOM_GUST BOM_GUST_PER REUNION_GUST REUNION_GUST_PER USA_SEAHGT USA_SEARAD_NE USA_SEARAD_SE USA_SEARAD_SW USA_SEARAD_NW STORM_SPEED STORM_DIR
1911263N16093 1911 61 NI BB NOT_NAMED 1911-09-20 00:00:00 TS 15.5000 93.3000 main 111 111 _________O____ -1 15.5000 93.3000 TC 64 4 299
1911263N16093 1911 61 NI BB NOT_NAMED 1911-09-20 03:00:00 TS 15.6000 93.1084 main 125 125 _________PO___ -1 15.6500 93.0126 TC 64 15.5000 93.3000 4 5 297
1911263N16093 1911 61 NI BB NOT_NAMED 1911-09-20 06:00:00 TS 15.7427 92.8083 main 153 151 _________OP___ -1 15.8000 92.7000 TC 64 15.6566 92.9707 4 7 295
1911263N16093 1911 61 NI BB NOT_NAMED 1911-09-20 09:00:00 TS 15.8902 92.4755 main 182 182 _________PP___ -1 15.9500 92.3500 TC 64 15.8104 92.6429 4 7 295
1911263N16093 1911 61 NI BB NOT_NAMED 1911-09-20 12:00:00 TS 16.0295 92.1593 main 213 213 _________OP___ -1 16.1000 92.0000 TC 64 15.9590 92.3187 4 7 295
1911263N16093 1911 61 NI BB NOT_NAMED 1911-09-20 15:00:00 TS 16.1787 91.8462 main 257 257 _________PO___ -1 16.2574 91.6925 TC 64 16.1000 92.0000 4 7 296
1911263N16093 1911 61 NI BB NOT_NAMED 1911-09-20 18:00:00 TS 16.3160 91.5443 main 290 290 _________OP___ -1 16.4000 91.4000 TC 64 16.2320 91.6886 4 6 294
1911263N16093 1911 61 NI BB NOT_NAMED 1911-09-20 21:00:00 TS 16.4324 91.2424 main 323 323 _________PP___ -1 16.5075 91.0999 TC 64 16.3573 91.3848 4 6 291
1911263N16093 1911 61 NI BB NOT_NAMED 1911-09-21 00:00:00 TS 16.5395 90.9443 main 356 356 _________OP___ -1 16.6000 90.8000 TC 64 16.4789 91.0886 4 6 291
1911263N16093 1911 61 NI BB NOT_NAMED 1911-09-21 03:00:00 TS 16.6462 90.6462 main 390 390 _________PO___ -1 16.6925 90.4925 TC 64 16.6000 90.8000 4 6 292
1911263N16093 1911 61 NI BB NOT_NAMED 1911-09-21 06:00:00 TS 16.7624 90.3629 main 415 415 _________OP___ -1 16.8000 90.2000 TC 64 16.7248 90.5258 4 6 296
1911263N16093 1911 61 NI BB NOT_NAMED 1911-09-21 09:00:00 TS 16.8960 90.1036 main 447 447 _________PP___ -1 16.9424 89.9500 TC 64 16.8497 90.2573 4 6 299
1911263N16093 1911 61 NI BB NOT_NAMED 1911-09-21 12:00:00 TS 17.0374 89.8426 main 469 460 _________OP___ -1 17.1000 89.7000 TC 64 16.9747 89.9851 4 6 298
1911263N16093 1911 61 NI BB NOT_NAMED 1911-09-21 15:00:00 TS 17.1787 89.5575 main 460 429 _________PO___ -1 17.2575 89.4150 TC 64 17.1000 89.7000 4 6 296
1911263N16093 1911 61 NI BB NOT_NAMED 1911-09-21 18:00:00 TS 17.3165 89.2487 main 422 392 _________OP___ -1 17.4000 89.1000 TC 64 17.2330 89.3975 4 7 293
1911263N16093 1911 61 NI BB NOT_NAMED 1911-09-21 21:00:00 TS 17.4361 88.9187 main 392 363 _________PP___ -1 17.5075 88.7574 TC 64 17.3648 89.0800 4 7 290
1911263N16093 1911 61 NI BB NOT_NAMED 1911-09-22 00:00:00 TS 17.5446 88.5737 main 363 328 _________OP___ -1 17.6000 88.4000 TC 64 17.4892 88.7475 4 7 288
1911263N16093 1911 61 NI BB NOT_NAMED 1911-09-22 03:00:00 TS 17.6537 88.2287 main 319 301 _________PO___ -1 17.7074 88.0575 TC 64 17.6000 88.4000 4 7 287
1911263N16093 1911 61 NI BB NOT_NAMED 1911-09-22 06:00:00 TS 17.7468 87.8635 main 301 271 _________OP___ -1 17.8000 87.7000 TC 64 17.6935 88.0271 4 7 283
1911263N16093 1911 61 NI BB NOT_NAMED 1911-09-22 09:00:00 TS 17.8151 87.4674 main 271 246 _________PP___ -1 17.8575 87.2924 TC 64 17.7726 87.6424 4 8 279
1911263N16093 1911 61 NI BB NOT_NAMED 1911-09-22 12:00:00 TS 17.8702 87.0807 main 246 235 _________OP___ -1 17.9000 86.9000 TC 64 17.8404 87.2615 4 7 279
1911263N16093 1911 61 NI BB NOT_NAMED 1911-09-22 15:00:00 TS 17.9249 86.7425 main 232 213 _________PO___ -1 17.9499 86.5850 TC 64 17.9000 86.9000 4 6 280
1911263N16093 1911 61 NI BB NOT_NAMED 1911-09-22 18:00:00 TS 17.9783 86.4513 main 213 191 _________OP___ -1 18.0000 86.3000 TC 64 17.9566 86.6026 4 6 281
1911263N16093 1911 61 NI BB NOT_NAMED 1911-09-22 21:00:00 TS 18.0282 86.1723 main 191 157 _________PP___ -1 18.0498 86.0225 TC 64 18.0066 86.3222 4 6 280
1911263N16093 1911 61 NI BB NOT_NAMED 1911-09-23 00:00:00 TS 18.0767 85.8654 main 157 123 _________OP___ -1 18.1000 85.7000 TC 64 18.0534 86.0307 4 7 278
1911263N16093 1911 61 NI BB NOT_NAMED 1911-09-23 03:00:00 TS 18.1250 85.4862 main 123 84 _________PO___ -1 18.1500 85.2725 TC 64 18.1000 85.7000 4 8 277
1911263N16093 1911 61 NI BB NOT_NAMED 1911-09-23 06:00:00 TS 18.1671 85.0363 main 76 46 _________OP___ -1 18.2000 84.8000 TC 64 18.1342 85.2726 4 9 275
1911263N16093 1911 61 NI BB NOT_NAMED 1911-09-23 09:00:00 TS 18.2066 84.5710 main 46 0 _________PP___ -1 18.2425 84.3349 TC 64 18.1706 84.8071 4 9 276
1911263N16093 1911 61 NI BB NOT_NAMED 1911-09-23 12:00:00 TS 18.2608 84.1191 main 0 0 _________OP___ -1 18.3000 83.9000 TC 64 18.2217 84.3382 4 8 279
1911263N16093 1911 61 NI BB NOT_NAMED 1911-09-23 15:00:00 TS 18.3387 83.7137 main 0 0 _________PO___ -1 18.3774 83.5274 TC 55 18.3000 83.9000 4 7 285
1911263N16093 1911 61 NI BB NOT_NAMED 1911-09-23 18:00:00 TS 18.4523 83.3654 main 0 0 _________OP___ -1 18.5000 83.2000 TC 47 18.4046 83.5308 4 7 293
1911263N16093 1911 61 NI BB NOT_NAMED 1911-09-23 21:00:00 TS 18.6085 83.0449 main 0 0 _________PP___ -1 18.6774 82.8924 TC 38 18.5395 83.1973 4 7 301
1911263N16093 1911 61 NI BB NOT_NAMED 1911-09-24 00:00:00 TS 18.8023 82.7451 main 0 0 _________OP___ -1 18.9000 82.6000 TC 30 18.7047 82.8901 4 7 306
1911263N16093 1911 61 NI BB NOT_NAMED 1911-09-24 03:00:00 TS 19.0212 82.4462 main 0 0 _________PO___ -1 19.1425 82.2925 TC 30 18.9000 82.6000 1 7 309
1911263N16093 1911 61 NI BB NOT_NAMED 1911-09-24 06:00:00 TS 19.2586 82.1472 main 0 0 _________OP___ -1 19.4000 82.0000 TC 30 19.1171 82.2944 1 7 312
1911263N16093 1911 61 NI BB NOT_NAMED 1911-09-24 09:00:00 TS 19.5062 81.8700 main 0 0 _________PP___ -1 19.6500 81.7349 TC 30 19.3624 82.0051 1 7 315
1911263N16093 1911 61 NI BB NOT_NAMED 1911-09-24 12:00:00 TS 19.7633 81.6191 main 0 0 _________OP___ -1 19.9000 81.5000 TC 30 19.6265 81.7382 1 7 319
1911263N16093 1911 61 NI BB NOT_NAMED 1911-09-24 15:00:00 TS 20.0212 81.3925 main 0 0 _________PO___ -1 20.1425 81.2849 TC 30 19.9000 81.5000 1 6 322
1911263N16093 1911 61 NI BB NOT_NAMED 1911-09-24 18:00:00 TS 20.2695 81.2038 main 0 0 _________OP___ -1 20.4000 81.1000 TC 30 20.1391 81.3076 1 6 328
1911263N16093 1911 61 NI BB NOT_NAMED 1911-09-24 21:00:00 TS 20.5298 81.0492 main 0 0 _________PP___ -1 20.6699 80.9572 TC 30 20.3896 81.1413 1 6 333
1911263N16093 1911 61 NI BB NOT_NAMED 1911-09-25 00:00:00 TS 20.8352 80.8897 main 0 0 _________OP___ -1 21.0000 80.8000 TC 30 20.6703 80.9793 1 8 333
1911263N16093 1911 61 NI BB NOT_NAMED 1911-09-25 03:00:00 TS 21.2138 80.6825 main 0 0 _________PO___ -1 21.4275 80.5651 TC 30 21.0000 80.8000 1 9 333
1911263N16093 1911 61 NI BB NOT_NAMED 1911-09-25 06:00:00 TS 21.6600 80.4340 main 0 0 _________OP___ -1 21.9000 80.3000 TC 30 21.4201 80.5680 1 10 333
1911263N16093 1911 61 NI BB NOT_NAMED 1911-09-25 09:00:00 TS 22.1251 80.1791 main 0 0 _________PP___ -1 22.3650 80.0425 TC 30 21.8851 80.3157 1 10 333
1911263N16093 1911 61 NI BB NOT_NAMED 1911-09-25 12:00:00 TS 22.5788 79.9277 main 0 0 _________OP___ -1 22.8000 79.8000 TC 30 22.3576 80.0555 1 10 333
1911263N16093 1911 61 NI BB NOT_NAMED 1911-09-25 15:00:00 TS 22.9862 79.6999 main 0 0 _________PO___ -1 23.1724 79.5997 TC 30 22.8000 79.8000 1 9 332
1911263N16093 1911 61 NI BB NOT_NAMED 1911-09-25 18:00:00 TS 23.3405 79.4857 main 0 0 _________OP___ -1 23.5000 79.4000 TC 30 23.1810 79.5714 1 8 329
1911263N16093 1911 61 NI BB NOT_NAMED 1911-09-25 21:00:00 TS 23.6736 79.2534 main 0 0 _________PP___ -1 23.8225 79.1575 TC 30 23.5247 79.3494 1 8 325
1911263N16093 1911 61 NI BB NOT_NAMED 1911-09-26 00:00:00 TS 23.9655 79.0139 main 0 0 _________OP___ -1 24.1000 78.9000 TC 30 23.8310 79.1277 1 7 321
1911263N16093 1911 61 NI BB NOT_NAMED 1911-09-26 03:00:00 TS 24.2075 78.7749 main 0 0 _________PO___ -1 24.3150 78.6498 TC 30 24.1000 78.9000 1 6 315
1911263N16093 1911 61 NI BB NOT_NAMED 1911-09-26 06:00:00 TS 24.4180 78.5243 main 0 0 _________OP___ -1 24.5000 78.4000 TC 30 24.3359 78.6487 1 6 312
1911263N16093 1911 61 NI BB NOT_NAMED 1911-09-26 09:00:00 TS 24.6188 78.2672 main 0 0 _________PP___ -1 24.7000 78.1425 TC 30 24.5375 78.3920 1 6 311
1911263N16093 1911 61 NI BB NOT_NAMED 1911-09-26 12:00:00 TS 24.8102 78.0197 main 0 0 _________OP___ -1 24.9000 77.9000 TC 30 24.7203 78.1394 1 6 312
1911263N16093 1911 61 NI AS NOT_NAMED 1911-09-26 15:00:00 TS 25.0000 77.7962 main 0 0 _________PO___ -1 25.0999 77.6924 TC 30 24.9000 77.9000 1 6 314
1911263N16093 1911 61 NI AS NOT_NAMED 1911-09-26 18:00:00 TS 25.1959 77.5846 main 0 0 _________OP___ -1 25.3000 77.5000 TC 30 25.0918 77.6692 1 5 315
1911263N16093 1911 61 NI AS NOT_NAMED 1911-09-26 21:00:00 TS 25.3887 77.3736 main 0 0 _________PP___ -1 25.4925 77.2924 TC 30 25.2850 77.4548 1 5 317
1911263N16093 1911 61 NI AS NOT_NAMED 1911-09-27 00:00:00 TS 25.5928 77.1815 main 0 0 _________OP___ -1 25.7000 77.1000 TC 30 25.4856 77.2630 1 5 323
1911263N16093 1911 61 NI AS NOT_NAMED 1911-09-27 03:00:00 TS 25.8212 77.0138 main 0 0 _________PO___ -1 25.9425 76.9275 TC 30 25.7000 77.1000 1 6 330
1911263N16093 1911 61 NI AS NOT_NAMED 1911-09-27 06:00:00 TS 26.0657 76.8735 main 0 0 _________OP___ -1 26.2000 76.8000 TC 30 25.9315 76.9469 1 5 336
1911263N16093 1911 61 NI AS NOT_NAMED 1911-09-27 09:00:00 TS 26.3099 76.7763 main 0 0 _________PP___ -1 26.4425 76.7274 TC 30 26.1774 76.8252 1 5 345
1911263N16093 1911 61 NI AS NOT_NAMED 1911-09-27 12:00:00 TS 26.5673 76.7204 main 0 0 _________OP___ -1 26.7000 76.7000 TC 30 26.4346 76.7408 1 5 352
1911263N16093 1911 61 NI AS NOT_NAMED 1911-09-27 15:00:00 TS 26.8500 76.6888 main 0 0 _________PO___ -1 27.0000 76.6776 TC 30 26.7000 76.7000 1 5 0
1911263N16093 1911 61 NI AS NOT_NAMED 1911-09-27 18:00:00 TS 27.1118 76.7034 main 0 0 _________OP___ -1 27.3000 76.7000 TC 30 26.9707 76.7059 1 5 7
1911263N16093 1911 61 NI AS NOT_NAMED 1911-09-27 21:00:00 TS 27.3721 76.7626 main 0 0 _________PP___ -1 27.5625 76.7824 TC 30 27.2451 76.7494 1 5 14
1911263N16093 1911 61 NI AS NOT_NAMED 1911-09-28 00:00:00 TS 27.6146 76.8455 main 0 0 _________OP___ -1 27.8000 76.9000 TC 30 27.5220 76.8182 1 4 16
1911263N16093 1911 61 NI AS NOT_NAMED 1911-09-28 03:00:00 NR 27.8000 76.9000 main 0 __________O___ -1 TC 27.8000 76.9000 1 4 12

About IBTrACS Database

This database is a web-friendly format of International Best Track Archive for Climate Stewardship (IBTrACS), a global best track data archive curated by NOAA dating back to 1842.

Updated: 2021-12-01